sensor_id;sensor_type;location;lat;lon;timestamp;pressure;altitude;pressure_sealevel;temperature;humidity
20656;BME280;10487;53.320;8.672;2023-02-23T00:00:49;100916.09;;;5.54;63.64
20656;BME280;10487;53.320;8.672;2023-02-23T00:03:53;100923.41;;;5.49;63.75
20656;BME280;10487;53.320;8.672;2023-02-23T00:06:55;100915.66;;;5.45;63.78
20656;BME280;10487;53.320;8.672;2023-02-23T00:09:57;100911.56;;;5.39;63.79
20656;BME280;10487;53.320;8.672;2023-02-23T00:12:59;100917.13;;;5.33;63.85
20656;BME280;10487;53.320;8.672;2023-02-23T00:16:06;100912.94;;;5.29;63.81
20656;BME280;10487;53.320;8.672;2023-02-23T00:19:09;100918.47;;;5.24;63.86
20656;BME280;10487;53.320;8.672;2023-02-23T00:22:10;100927.31;;;5.23;63.88
20656;BME280;10487;53.320;8.672;2023-02-23T00:25:13;100918.59;;;5.21;64.04
20656;BME280;10487;53.320;8.672;2023-02-23T00:28:15;100919.66;;;5.17;63.92
20656;BME280;10487;53.320;8.672;2023-02-23T00:31:17;100925.13;;;5.14;64.02
20656;BME280;10487;53.320;8.672;2023-02-23T00:34:20;100924.28;;;5.14;64.08
20656;BME280;10487;53.320;8.672;2023-02-23T00:37:21;100919.94;;;5.11;63.92
20656;BME280;10487;53.320;8.672;2023-02-23T00:40:23;100914.72;;;5.10;63.95
20656;BME280;10487;53.320;8.672;2023-02-23T00:43:25;100919.22;;;5.08;64.04
20656;BME280;10487;53.320;8.672;2023-02-23T00:46:29;100911.44;;;5.05;64.03
20656;BME280;10487;53.320;8.672;2023-02-23T00:49:31;100909.78;;;5.02;64.10
20656;BME280;10487;53.320;8.672;2023-02-23T00:52:33;100916.94;;;5.00;63.98
20656;BME280;10487;53.320;8.672;2023-02-23T00:55:34;100913.53;;;4.98;64.20
20656;BME280;10487;53.320;8.672;2023-02-23T00:58:36;100919.81;;;4.96;64.17
20656;BME280;10487;53.320;8.672;2023-02-23T01:01:39;100923.41;;;4.95;64.22
20656;BME280;10487;53.320;8.672;2023-02-23T01:04:42;100923.47;;;4.93;64.25
20656;BME280;10487;53.320;8.672;2023-02-23T01:07:43;100925.25;;;4.93;64.12
20656;BME280;10487;53.320;8.672;2023-02-23T01:10:46;100938.41;;;4.94;64.07
20656;BME280;10487;53.320;8.672;2023-02-23T01:13:55;100934.13;;;4.92;64.00
20656;BME280;10487;53.320;8.672;2023-02-23T01:16:57;100938.63;;;4.90;64.05
20656;BME280;10487;53.320;8.672;2023-02-23T01:19:59;100936.00;;;4.90;64.06
20656;BME280;10487;53.320;8.672;2023-02-23T01:23:02;100935.13;;;4.89;64.13
20656;BME280;10487;53.320;8.672;2023-02-23T01:26:03;100926.41;;;4.87;64.09
20656;BME280;10487;53.320;8.672;2023-02-23T01:29:13;100933.47;;;4.87;63.84
20656;BME280;10487;53.320;8.672;2023-02-23T01:32:15;100931.88;;;4.83;64.05
20656;BME280;10487;53.320;8.672;2023-02-23T01:35:17;100929.25;;;4.83;64.06
20656;BME280;10487;53.320;8.672;2023-02-23T01:38:18;100924.03;;;4.81;64.07
20656;BME280;10487;53.320;8.672;2023-02-23T01:41:20;100923.19;;;4.81;64.01
20656;BME280;10487;53.320;8.672;2023-02-23T01:47:26;100925.78;;;4.82;64.10
20656;BME280;10487;53.320;8.672;2023-02-23T01:53:55;100935.25;;;4.86;64.14
20656;BME280;10487;53.320;8.672;2023-02-23T01:57:00;100927.31;;;4.86;64.25
20656;BME280;10487;53.320;8.672;2023-02-23T02:00:03;100936.03;;;4.88;64.18
20656;BME280;10487;53.320;8.672;2023-02-23T02:03:18;100933.41;;;4.88;64.26
20656;BME280;10487;53.320;8.672;2023-02-23T02:06:25;100935.91;;;4.91;64.33
20656;BME280;10487;53.320;8.672;2023-02-23T02:09:31;100939.31;;;4.93;64.36
20656;BME280;10487;53.320;8.672;2023-02-23T02:12:39;100937.47;;;4.95;64.19
20656;BME280;10487;53.320;8.672;2023-02-23T02:16:01;100938.28;;;4.97;64.33
20656;BME280;10487;53.320;8.672;2023-02-23T02:32:36;100931.53;;;5.09;64.33
20656;BME280;10487;53.320;8.672;2023-02-23T02:49:07;100917.59;;;5.24;64.27
20656;BME280;10487;53.320;8.672;2023-02-23T02:52:26;100913.09;;;5.26;64.42
20656;BME280;10487;53.320;8.672;2023-02-23T02:55:30;100912.06;;;5.28;64.40
20656;BME280;10487;53.320;8.672;2023-02-23T02:58:37;100910.22;;;5.30;64.47
20656;BME280;10487;53.320;8.672;2023-02-23T03:01:39;100912.72;;;5.33;64.40
20656;BME280;10487;53.320;8.672;2023-02-23T03:04:59;100917.06;;;5.34;64.43
20656;BME280;10487;53.320;8.672;2023-02-23T03:12:10;100915.13;;;5.38;64.60
20656;BME280;10487;53.320;8.672;2023-02-23T03:15:54;100915.03;;;5.39;64.39
20656;BME280;10487;53.320;8.672;2023-02-23T03:19:25;100918.50;;;5.42;64.45
20656;BME280;10487;53.320;8.672;2023-02-23T03:27:00;100910.38;;;5.45;64.40
20656;BME280;10487;53.320;8.672;2023-02-23T03:30:39;100916.47;;;5.47;64.47
20656;BME280;10487;53.320;8.672;2023-02-23T03:34:15;100917.31;;;5.47;64.44
20656;BME280;10487;53.320;8.672;2023-02-23T03:37:41;100922.44;;;5.50;64.42
20656;BME280;10487;53.320;8.672;2023-02-23T03:41:06;100920.66;;;5.51;64.40
20656;BME280;10487;53.320;8.672;2023-02-23T03:44:33;100917.09;;;5.52;64.40
20656;BME280;10487;53.320;8.672;2023-02-23T03:47:57;100921.44;;;5.53;64.46
20656;BME280;10487;53.320;8.672;2023-02-23T03:51:21;100921.38;;;5.54;64.63
20656;BME280;10487;53.320;8.672;2023-02-23T03:54:52;100925.72;;;5.55;64.43
20656;BME280;10487;53.320;8.672;2023-02-23T03:58:15;100931.88;;;5.56;64.57
20656;BME280;10487;53.320;8.672;2023-02-23T04:01:37;100931.88;;;5.56;64.49
20656;BME280;10487;53.320;8.672;2023-02-23T04:05:00;100932.75;;;5.56;64.43
20656;BME280;10487;53.320;8.672;2023-02-23T04:08:25;100940.59;;;5.58;64.49
20656;BME280;10487;53.320;8.672;2023-02-23T04:11:53;100936.25;;;5.57;64.54
20656;BME280;10487;53.320;8.672;2023-02-23T04:18:34;100939.69;;;5.59;64.58
20656;BME280;10487;53.320;8.672;2023-02-23T04:21:37;100930.78;;;5.60;64.60
20656;BME280;10487;53.320;8.672;2023-02-23T04:24:38;100936.03;;;5.61;64.70
20656;BME280;10487;53.320;8.672;2023-02-23T04:27:40;100937.81;;;5.61;64.62
20656;BME280;10487;53.320;8.672;2023-02-23T04:30:42;100939.53;;;5.62;64.50
20656;BME280;10487;53.320;8.672;2023-02-23T04:33:44;100935.06;;;5.62;64.67
20656;BME280;10487;53.320;8.672;2023-02-23T04:36:45;100937.66;;;5.64;64.66
20656;BME280;10487;53.320;8.672;2023-02-23T04:39:47;100937.66;;;5.64;64.64
20656;BME280;10487;53.320;8.672;2023-02-23T04:42:51;100939.34;;;5.65;64.64
20656;BME280;10487;53.320;8.672;2023-02-23T04:45:52;100937.56;;;5.65;64.55
20656;BME280;10487;53.320;8.672;2023-02-23T04:48:54;100933.13;;;5.66;64.77
20656;BME280;10487;53.320;8.672;2023-02-23T04:51:56;100940.13;;;5.67;64.74
20656;BME280;10487;53.320;8.672;2023-02-23T04:54:57;100947.16;;;5.68;64.94
20656;BME280;10487;53.320;8.672;2023-02-23T04:58:00;100947.06;;;5.69;64.74
20656;BME280;10487;53.320;8.672;2023-02-23T05:01:04;100942.63;;;5.70;64.64
20656;BME280;10487;53.320;8.672;2023-02-23T05:04:06;100942.63;;;5.70;64.61
20656;BME280;10487;53.320;8.672;2023-02-23T05:07:08;100947.00;;;5.71;64.57
20656;BME280;10487;53.320;8.672;2023-02-23T05:10:10;100951.44;;;5.70;64.68
20656;BME280;10487;53.320;8.672;2023-02-23T05:13:11;100947.94;;;5.70;64.63
20656;BME280;10487;53.320;8.672;2023-02-23T05:16:13;100952.31;;;5.71;64.74
20656;BME280;10487;53.320;8.672;2023-02-23T05:19:15;100952.31;;;5.71;64.66
20656;BME280;10487;53.320;8.672;2023-02-23T05:22:16;100955.81;;;5.71;64.71
20656;BME280;10487;53.320;8.672;2023-02-23T05:25:18;100953.16;;;5.71;64.63
20656;BME280;10487;53.320;8.672;2023-02-23T05:28:19;100950.50;;;5.71;64.70
20656;BME280;10487;53.320;8.672;2023-02-23T05:31:22;100952.22;;;5.89;65.53
20656;BME280;10487;53.320;8.672;2023-02-23T05:34:25;100960.31;;;6.21;65.41
20656;BME280;10487;53.320;8.672;2023-02-23T05:37:27;100950.97;;;6.46;65.54
20656;BME280;10487;53.320;8.672;2023-02-23T05:40:29;100954.31;;;6.50;65.07
20656;BME280;10487;53.320;8.672;2023-02-23T05:43:31;100960.66;;;6.47;65.10
20656;BME280;10487;53.320;8.672;2023-02-23T05:46:32;100960.13;;;6.41;64.83
20656;BME280;10487;53.320;8.672;2023-02-23T05:49:34;100965.66;;;6.36;64.92
20656;BME280;10487;53.320;8.672;2023-02-23T05:52:38;100954.53;;;6.30;64.89
20656;BME280;10487;53.320;8.672;2023-02-23T05:55:41;100960.22;;;6.22;64.94
20656;BME280;10487;53.320;8.672;2023-02-23T05:58:43;100965.00;;;6.16;64.86
20656;BME280;10487;53.320;8.672;2023-02-23T06:01:44;100966.16;;;6.10;64.98
20656;BME280;10487;53.320;8.672;2023-02-23T06:04:46;100972.56;;;6.06;64.93
20656;BME280;10487;53.320;8.672;2023-02-23T06:07:48;100969.28;;;6.01;65.04
20656;BME280;10487;53.320;8.672;2023-02-23T06:10:50;100973.88;;;5.97;64.95
20656;BME280;10487;53.320;8.672;2023-02-23T06:13:51;100983.78;;;5.94;64.90
20656;BME280;10487;53.320;8.672;2023-02-23T06:16:53;100982.97;;;5.92;64.81
20656;BME280;10487;53.320;8.672;2023-02-23T06:19:55;100985.81;;;5.89;64.94
20656;BME280;10487;53.320;8.672;2023-02-23T06:22:57;100976.13;;;5.88;65.09
20656;BME280;10487;53.320;8.672;2023-02-23T06:25:58;100985.00;;;5.87;64.85
20656;BME280;10487;53.320;8.672;2023-02-23T06:29:00;100990.31;;;5.87;64.89
20656;BME280;10487;53.320;8.672;2023-02-23T06:32:03;100981.56;;;5.85;64.83
20656;BME280;10487;53.320;8.672;2023-02-23T06:35:05;100987.03;;;5.82;64.91
20656;BME280;10487;53.320;8.672;2023-02-23T06:38:07;100992.41;;;5.80;64.99
20656;BME280;10487;53.320;8.672;2023-02-23T06:41:10;100988.91;;;5.80;64.98
20656;BME280;10487;53.320;8.672;2023-02-23T06:44:11;100996.94;;;5.78;64.97
20656;BME280;10487;53.320;8.672;2023-02-23T06:47:13;100996.06;;;5.78;64.96
20656;BME280;10487;53.320;8.672;2023-02-23T06:50:15;101006.75;;;5.76;64.87
20656;BME280;10487;53.320;8.672;2023-02-23T06:53:16;100998.88;;;5.75;64.89
20656;BME280;10487;53.320;8.672;2023-02-23T06:56:18;101006.03;;;5.73;64.88
20656;BME280;10487;53.320;8.672;2023-02-23T06:59:20;101006.94;;;5.72;64.96
20656;BME280;10487;53.320;8.672;2023-02-23T07:02:21;101010.56;;;5.71;64.95
20656;BME280;10487;53.320;8.672;2023-02-23T07:05:23;101013.34;;;5.68;64.97
20656;BME280;10487;53.320;8.672;2023-02-23T07:08:25;101014.25;;;5.67;64.88
20656;BME280;10487;53.320;8.672;2023-02-23T07:11:26;101018.72;;;5.66;64.92
20656;BME280;10487;53.320;8.672;2023-02-23T07:14:28;101030.31;;;5.64;64.91
20656;BME280;10487;53.320;8.672;2023-02-23T07:17:30;101027.72;;;5.62;64.95
20656;BME280;10487;53.320;8.672;2023-02-23T07:20:32;101028.69;;;5.61;64.94
20656;BME280;10487;53.320;8.672;2023-02-23T07:23:33;101030.47;;;5.61;64.91
20656;BME280;10487;53.320;8.672;2023-02-23T07:26:35;101033.19;;;5.59;64.85
20656;BME280;10487;53.320;8.672;2023-02-23T07:29:37;101035.84;;;5.59;64.89
20656;BME280;10487;53.320;8.672;2023-02-23T07:32:38;101036.66;;;5.60;64.84
20656;BME280;10487;53.320;8.672;2023-02-23T07:35:40;101044.63;;;5.60;65.01
20656;BME280;10487;53.320;8.672;2023-02-23T07:38:43;101047.25;;;5.60;64.96
20656;BME280;10487;53.320;8.672;2023-02-23T07:41:44;101048.22;;;5.59;65.00
20656;BME280;10487;53.320;8.672;2023-02-23T07:44:46;101051.78;;;5.58;64.94
20656;BME280;10487;53.320;8.672;2023-02-23T07:47:48;101057.94;;;5.58;64.95
20656;BME280;10487;53.320;8.672;2023-02-23T07:50:49;101064.09;;;5.59;64.85
20656;BME280;10487;53.320;8.672;2023-02-23T07:53:51;101064.09;;;5.59;64.84
20656;BME280;10487;53.320;8.672;2023-02-23T07:56:52;101072.03;;;5.59;64.88
20656;BME280;10487;53.320;8.672;2023-02-23T07:59:54;101073.72;;;5.60;64.95
20656;BME280;10487;53.320;8.672;2023-02-23T08:02:56;101070.25;;;5.59;64.84
20656;BME280;10487;53.320;8.672;2023-02-23T08:05:57;101075.56;;;5.59;64.89
20656;BME280;10487;53.320;8.672;2023-02-23T08:08:59;101074.59;;;5.60;64.87
20656;BME280;10487;53.320;8.672;2023-02-23T08:12:02;101074.59;;;5.60;65.04
20656;BME280;10487;53.320;8.672;2023-02-23T08:15:04;101081.69;;;5.60;65.02
20656;BME280;10487;53.320;8.672;2023-02-23T08:18:08;101086.06;;;5.61;64.96
20656;BME280;10487;53.320;8.672;2023-02-23T08:21:10;101083.41;;;5.61;64.99
20656;BME280;10487;53.320;8.672;2023-02-23T08:24:12;101088.69;;;5.61;65.09
20656;BME280;10487;53.320;8.672;2023-02-23T08:27:14;101087.78;;;5.62;65.07
20656;BME280;10487;53.320;8.672;2023-02-23T08:30:16;101088.28;;;5.87;65.95
20656;BME280;10487;53.320;8.672;2023-02-23T08:33:19;101087.63;;;6.00;65.41
20656;BME280;10487;53.320;8.672;2023-02-23T08:36:21;101076.94;;;6.02;65.12
20656;BME280;10487;53.320;8.672;2023-02-23T08:39:23;101083.19;;;6.01;65.14
20656;BME280;10487;53.320;8.672;2023-02-23T08:42:24;101097.28;;;6.01;65.01
20656;BME280;10487;53.320;8.672;2023-02-23T08:45:26;101100.09;;;5.98;64.96
20656;BME280;10487;53.320;8.672;2023-02-23T08:48:29;101098.38;;;5.97;65.08
20656;BME280;10487;53.320;8.672;2023-02-23T08:51:32;101092.28;;;5.95;64.99
20656;BME280;10487;53.320;8.672;2023-02-23T08:54:35;101093.31;;;5.93;64.93
20656;BME280;10487;53.320;8.672;2023-02-23T08:57:36;101091.53;;;5.93;65.00
20656;BME280;10487;53.320;8.672;2023-02-23T09:00:38;101098.59;;;5.93;65.01
20656;BME280;10487;53.320;8.672;2023-02-23T09:03:40;101095.09;;;5.92;65.01
20656;BME280;10487;53.320;8.672;2023-02-23T09:06:41;101103.13;;;5.91;65.07
20656;BME280;10487;53.320;8.672;2023-02-23T09:09:43;101098.81;;;5.88;64.79
20656;BME280;10487;53.320;8.672;2023-02-23T09:12:44;101103.34;;;5.86;64.96
20656;BME280;10487;53.320;8.672;2023-02-23T09:15:46;101100.69;;;5.86;64.95
20656;BME280;10487;53.320;8.672;2023-02-23T09:18:48;101107.84;;;5.84;64.96
20656;BME280;10487;53.320;8.672;2023-02-23T09:21:50;101103.50;;;5.83;65.04
20656;BME280;10487;53.320;8.672;2023-02-23T09:24:51;101103.50;;;5.83;64.98
20656;BME280;10487;53.320;8.672;2023-02-23T09:27:54;101110.56;;;5.83;65.03
20656;BME280;10487;53.320;8.672;2023-02-23T09:31:08;101113.22;;;5.83;65.08
20656;BME280;10487;53.320;8.672;2023-02-23T09:34:10;101114.13;;;5.82;65.03
20656;BME280;10487;53.320;8.672;2023-02-23T09:37:13;101115.00;;;5.82;65.05
20656;BME280;10487;53.320;8.672;2023-02-23T09:40:23;101112.44;;;5.81;65.05
20656;BME280;10487;53.320;8.672;2023-02-23T09:49:53;101107.44;;;5.75;64.96
20656;BME280;10487;53.320;8.672;2023-02-23T09:53:37;101122.44;;;5.74;65.13
20656;BME280;10487;53.320;8.672;2023-02-23T09:56:47;101119.03;;;5.72;65.14
20656;BME280;10487;53.320;8.672;2023-02-23T09:59:50;101124.31;;;5.72;65.12
20656;BME280;10487;53.320;8.672;2023-02-23T10:03:18;101119.88;;;5.73;65.08
20656;BME280;10487;53.320;8.672;2023-02-23T10:06:25;101117.25;;;5.73;65.26
20656;BME280;10487;53.320;8.672;2023-02-23T10:09:41;101113.66;;;5.74;65.11
20656;BME280;10487;53.320;8.672;2023-02-23T10:22:44;101125.25;;;5.71;65.09
20656;BME280;10487;53.320;8.672;2023-02-23T10:25:49;101132.25;;;5.72;65.18
20656;BME280;10487;53.320;8.672;2023-02-23T10:28:56;101127.81;;;5.73;65.22
20656;BME280;10487;53.320;8.672;2023-02-23T10:32:02;101133.13;;;5.73;65.20
20656;BME280;10487;53.320;8.672;2023-02-23T10:35:16;101126.97;;;5.72;65.23
20656;BME280;10487;53.320;8.672;2023-02-23T10:38:19;101135.00;;;6.06;66.34
20656;BME280;10487;53.320;8.672;2023-02-23T10:41:21;101133.81;;;6.65;66.59
20656;BME280;10487;53.320;8.672;2023-02-23T10:44:24;101131.72;;;6.89;65.58
20656;BME280;10487;53.320;8.672;2023-02-23T10:47:33;101133.44;;;6.90;65.45
20656;BME280;10487;53.320;8.672;2023-02-23T10:50:37;101139.84;;;6.86;65.27
20656;BME280;10487;53.320;8.672;2023-02-23T10:53:39;101148.97;;;6.80;65.16
20656;BME280;10487;53.320;8.672;2023-02-23T10:56:45;101143.91;;;6.76;65.17
20656;BME280;10487;53.320;8.672;2023-02-23T11:03:25;101149.53;;;6.69;65.05
20656;BME280;10487;53.320;8.672;2023-02-23T11:06:34;101144.31;;;6.68;65.31
20656;BME280;10487;53.320;8.672;2023-02-23T11:09:36;101144.44;;;6.65;65.24
20656;BME280;10487;53.320;8.672;2023-02-23T11:12:47;101144.56;;;6.62;65.28
20656;BME280;10487;53.320;8.672;2023-02-23T11:16:07;101142.00;;;6.60;65.17
20656;BME280;10487;53.320;8.672;2023-02-23T11:19:20;101143.09;;;6.56;65.22
20656;BME280;10487;53.320;8.672;2023-02-23T11:22:24;101135.22;;;6.55;65.29
20656;BME280;10487;53.320;8.672;2023-02-23T11:25:29;101140.63;;;6.53;65.12
20656;BME280;10487;53.320;8.672;2023-02-23T11:28:35;101138.97;;;6.51;65.19
20656;BME280;10487;53.320;8.672;2023-02-23T11:31:47;101142.63;;;6.48;65.20
20656;BME280;10487;53.320;8.672;2023-02-23T11:35:11;101145.44;;;6.45;65.18
20656;BME280;10487;53.320;8.672;2023-02-23T11:38:25;101143.84;;;6.41;65.03
20656;BME280;10487;53.320;8.672;2023-02-23T11:41:27;101136.13;;;6.37;65.24
20656;BME280;10487;53.320;8.672;2023-02-23T11:44:32;101146.97;;;6.32;64.97
20656;BME280;10487;53.320;8.672;2023-02-23T11:47:38;101154.16;;;6.30;64.93
20656;BME280;10487;53.320;8.672;2023-02-23T11:50:44;101146.28;;;6.29;65.15
20656;BME280;10487;53.320;8.672;2023-02-23T11:53:47;101148.94;;;6.29;65.34
20656;BME280;10487;53.320;8.672;2023-02-23T11:56:49;101145.47;;;6.27;65.20
20656;BME280;10487;53.320;8.672;2023-02-23T11:59:56;101147.34;;;6.25;65.24
20656;BME280;10487;53.320;8.672;2023-02-23T12:03:00;101137.63;;;6.25;65.22
20656;BME280;10487;53.320;8.672;2023-02-23T12:06:03;101143.69;;;6.27;65.32
20656;BME280;10487;53.320;8.672;2023-02-23T12:09:15;101145.25;;;6.31;65.26
20656;BME280;10487;53.320;8.672;2023-02-23T12:12:22;101135.38;;;6.35;65.21
20656;BME280;10487;53.320;8.672;2023-02-23T12:22:09;101134.84;;;6.45;65.11
20656;BME280;10487;53.320;8.672;2023-02-23T12:25:23;101141.69;;;6.49;64.97
20656;BME280;10487;53.320;8.672;2023-02-23T12:28:42;101136.31;;;6.51;65.09
20656;BME280;10487;53.320;8.672;2023-02-23T12:32:00;101136.16;;;6.54;64.83
20656;BME280;10487;53.320;8.672;2023-02-23T12:35:11;101126.25;;;6.57;65.13
20656;BME280;10487;53.320;8.672;2023-02-23T12:38:32;101131.47;;;6.59;65.08
20656;BME280;10487;53.320;8.672;2023-02-23T12:41:39;101122.69;;;6.58;65.00
20656;BME280;10487;53.320;8.672;2023-02-23T12:44:48;101127.88;;;6.60;64.99
20656;BME280;10487;53.320;8.672;2023-02-23T12:47:58;101134.22;;;6.57;64.82
20656;BME280;10487;53.320;8.672;2023-02-23T12:51:05;101135.06;;;6.58;64.93
20656;BME280;10487;53.320;8.672;2023-02-23T12:54:14;101127.97;;;6.58;64.85
20656;BME280;10487;53.320;8.672;2023-02-23T13:00:39;101119.06;;;6.94;65.88
20656;BME280;10487;53.320;8.672;2023-02-23T13:04:11;101131.00;;;7.35;65.82
20656;BME280;10487;53.320;8.672;2023-02-23T13:07:30;101133.09;;;7.77;65.81
20656;BME280;10487;53.320;8.672;2023-02-23T13:10:57;101132.81;;;8.13;65.74
20656;BME280;10487;53.320;8.672;2023-02-23T13:21:07;101132.81;;;8.58;65.27
20656;BME280;10487;53.320;8.672;2023-02-23T13:27:39;101128.94;;;8.34;64.78
20656;BME280;10487;53.320;8.672;2023-02-23T13:30:43;101131.56;;;8.20;64.84
20656;BME280;10487;53.320;8.672;2023-02-23T13:33:48;101128.78;;;8.06;64.91
20656;BME280;10487;53.320;8.672;2023-02-23T13:36:50;101127.59;;;7.95;64.92
20656;BME280;10487;53.320;8.672;2023-02-23T13:43:20;101121.06;;;7.85;65.00
20656;BME280;10487;53.320;8.672;2023-02-23T13:46:42;101125.78;;;7.80;64.80
20656;BME280;10487;53.320;8.672;2023-02-23T13:53:46;101123.94;;;7.67;64.78
20656;BME280;10487;53.320;8.672;2023-02-23T13:56:49;101125.00;;;7.63;64.83
20656;BME280;10487;53.320;8.672;2023-02-23T13:59:53;101120.94;;;7.57;64.90
20656;BME280;10487;53.320;8.672;2023-02-23T14:02:55;101122.09;;;7.52;64.87
20656;BME280;10487;53.320;8.672;2023-02-23T14:05:59;101123.13;;;7.49;64.76
20656;BME280;10487;53.320;8.672;2023-02-23T14:09:11;101129.72;;;7.42;64.66
20656;BME280;10487;53.320;8.672;2023-02-23T14:12:16;101130.03;;;7.36;64.73
20656;BME280;10487;53.320;8.672;2023-02-23T14:18:30;101121.06;;;7.23;64.90
20656;BME280;10487;53.320;8.672;2023-02-23T14:21:40;101123.09;;;7.18;64.62
20656;BME280;10487;53.320;8.672;2023-02-23T14:24:43;101128.63;;;7.13;64.69
20656;BME280;10487;53.320;8.672;2023-02-23T14:27:44;101128.00;;;7.08;64.61
20656;BME280;10487;53.320;8.672;2023-02-23T14:30:49;101130.09;;;7.19;65.12
20656;BME280;10487;53.320;8.672;2023-02-23T14:33:59;101128.41;;;7.18;64.81
20656;BME280;10487;53.320;8.672;2023-02-23T14:37:36;101131.38;;;7.12;64.92
20656;BME280;10487;53.320;8.672;2023-02-23T14:40:40;101131.22;;;7.15;65.12
20656;BME280;10487;53.320;8.672;2023-02-23T14:43:44;101129.56;;;7.45;65.42
20656;BME280;10487;53.320;8.672;2023-02-23T14:46:53;101130.25;;;7.49;64.54
20656;BME280;10487;53.320;8.672;2023-02-23T14:49:59;101126.22;;;7.42;64.65
20656;BME280;10487;53.320;8.672;2023-02-23T14:53:02;101136.31;;;7.35;64.42
20656;BME280;10487;53.320;8.672;2023-02-23T14:56:17;101135.97;;;7.25;64.54
20656;BME280;10487;53.320;8.672;2023-02-23T14:59:24;101128.75;;;7.43;65.40
20656;BME280;10487;53.320;8.672;2023-02-23T15:02:28;101131.44;;;7.59;65.04
20656;BME280;10487;53.320;8.672;2023-02-23T15:05:34;101141.72;;;7.49;64.24
20656;BME280;10487;53.320;8.672;2023-02-23T15:08:41;101139.28;;;7.29;64.32
20656;BME280;10487;53.320;8.672;2023-02-23T15:11:47;101133.88;;;7.15;64.79
20656;BME280;10487;53.320;8.672;2023-02-23T15:14:50;101146.44;;;7.11;64.86
20656;BME280;10487;53.320;8.672;2023-02-23T15:17:54;101147.94;;;7.00;64.63
20656;BME280;10487;53.320;8.672;2023-02-23T15:20:56;101157.63;;;6.84;64.61
20656;BME280;10487;53.320;8.672;2023-02-23T15:24:08;101156.56;;;6.71;64.84
20656;BME280;10487;53.320;8.672;2023-02-23T15:27:20;101168.59;;;6.59;64.61
20656;BME280;10487;53.320;8.672;2023-02-23T15:30:24;101163.28;;;6.42;64.46
20656;BME280;10487;53.320;8.672;2023-02-23T15:33:28;101172.94;;;6.26;64.58
20656;BME280;10487;53.320;8.672;2023-02-23T15:36:32;101178.97;;;6.11;65.03
20656;BME280;10487;53.320;8.672;2023-02-23T15:42:45;101179.16;;;5.89;64.68
20656;BME280;10487;53.320;8.672;2023-02-23T15:45:53;101191.28;;;5.74;64.58
20656;BME280;10487;53.320;8.672;2023-02-23T15:48:58;101182.00;;;5.66;64.77
20656;BME280;10487;53.320;8.672;2023-02-23T15:52:33;101184.22;;;5.56;64.76
20656;BME280;10487;53.320;8.672;2023-02-23T15:55:42;101195.03;;;5.52;64.78
20656;BME280;10487;53.320;8.672;2023-02-23T15:58:48;101191.00;;;5.43;64.74
20656;BME280;10487;53.320;8.672;2023-02-23T16:01:58;101194.84;;;5.36;64.72
20656;BME280;10487;53.320;8.672;2023-02-23T16:05:07;101203.22;;;5.27;64.43
20656;BME280;10487;53.320;8.672;2023-02-23T16:08:22;101210.63;;;5.19;64.58
20656;BME280;10487;53.320;8.672;2023-02-23T16:11:25;101209.19;;;5.10;64.65
20656;BME280;10487;53.320;8.672;2023-02-23T16:18:05;101209.84;;;4.95;64.67
20656;BME280;10487;53.320;8.672;2023-02-23T16:21:13;101215.28;;;4.92;64.56
20656;BME280;10487;53.320;8.672;2023-02-23T16:24:17;101218.19;;;4.86;64.63
20656;BME280;10487;53.320;8.672;2023-02-23T16:27:23;101209.50;;;4.83;64.61
20656;BME280;10487;53.320;8.672;2023-02-23T16:30:58;101212.34;;;4.78;64.66
20656;BME280;10487;53.320;8.672;2023-02-23T16:34:00;101220.50;;;4.73;64.59
20656;BME280;10487;53.320;8.672;2023-02-23T16:37:14;101220.59;;;4.70;64.57
20656;BME280;10487;53.320;8.672;2023-02-23T16:40:18;101218.25;;;4.64;64.48
20656;BME280;10487;53.320;8.672;2023-02-23T16:43:19;101226.53;;;4.77;64.45
20656;BME280;10487;53.320;8.672;2023-02-23T16:46:24;101228.50;;;4.72;64.43
20656;BME280;10487;53.320;8.672;2023-02-23T16:49:29;101223.34;;;4.69;64.43
20656;BME280;10487;53.320;8.672;2023-02-23T16:52:31;101224.44;;;4.63;64.29
20656;BME280;10487;53.320;8.672;2023-02-23T16:55:35;101222.78;;;4.61;64.32
20656;BME280;10487;53.320;8.672;2023-02-23T16:58:45;101221.25;;;4.55;64.34
20656;BME280;10487;53.320;8.672;2023-02-23T17:01:48;101216.81;;;4.56;64.76
20656;BME280;10487;53.320;8.672;2023-02-23T17:04:50;101213.75;;;4.66;64.52
20656;BME280;10487;53.320;8.672;2023-02-23T17:07:52;101212.16;;;4.62;64.21
20656;BME280;10487;53.320;8.672;2023-02-23T17:10:54;101228.34;;;4.55;64.20
20656;BME280;10487;53.320;8.672;2023-02-23T17:13:57;101234.72;;;4.49;64.21
20656;BME280;10487;53.320;8.672;2023-02-23T17:16:59;101226.13;;;4.44;64.01
20656;BME280;10487;53.320;8.672;2023-02-23T17:20:00;101229.88;;;4.39;64.09
20656;BME280;10487;53.320;8.672;2023-02-23T17:23:02;101230.94;;;4.35;64.07
20656;BME280;10487;53.320;8.672;2023-02-23T17:26:05;101232.94;;;4.28;64.04
20656;BME280;10487;53.320;8.672;2023-02-23T17:29:07;101231.34;;;4.24;64.04
20656;BME280;10487;53.320;8.672;2023-02-23T17:32:09;101229.75;;;4.20;63.98
20656;BME280;10487;53.320;8.672;2023-02-23T17:35:11;101230.75;;;4.18;64.05
20656;BME280;10487;53.320;8.672;2023-02-23T17:38:12;101234.28;;;4.17;63.93
20656;BME280;10487;53.320;8.672;2023-02-23T17:41:16;101235.19;;;4.16;64.02
20656;BME280;10487;53.320;8.672;2023-02-23T17:44:19;101237.03;;;4.13;64.13
20656;BME280;10487;53.320;8.672;2023-02-23T17:47:20;101233.53;;;4.13;63.86
20656;BME280;10487;53.320;8.672;2023-02-23T17:50:22;101228.41;;;4.10;63.98
20656;BME280;10487;53.320;8.672;2023-02-23T17:53:28;101229.22;;;4.10;63.84
20656;BME280;10487;53.320;8.672;2023-02-23T17:56:29;101223.13;;;4.10;63.77
20656;BME280;10487;53.320;8.672;2023-02-23T17:59:31;101222.25;;;4.09;63.80
20656;BME280;10487;53.320;8.672;2023-02-23T18:02:33;101226.66;;;4.09;63.79
20656;BME280;10487;53.320;8.672;2023-02-23T18:05:35;101224.03;;;4.09;63.65
20656;BME280;10487;53.320;8.672;2023-02-23T18:08:38;101225.75;;;4.10;63.73